Terminal Aerodrome Forecast
Issued by NWS

Home | Current Version | Previous Version | Text Only | Print | Product List | Glossary On
Versions: 1 2 3 4 5 6 7 8 9 10 11 12 13
000
FTUS44 KJAN 181100
TAFGTR
TAF
KGTR 181129Z 1812/1912 07008KT 6SM -RA SCT015 BKN025
     FM181400 08010KT 4SM -RA BR OVC015
     FM181700 06010KT P6SM VCSH OVC015
     FM182100 07007KT P6SM VCSH OVC050
     FM190200 VRB03KT P6SM SCT100=

USA.gov is the U.S. government's official web portal to all federal, state and local government web resources and services.